Time;durP1;ratioP1;P1;durP2;ratioP2;P2;SDS_P1;SDS_P2;PMS_P1;PMS_P2;Temp;Humidity;BMP_temperature;BMP_pressure;BME280_temperature;BME280_humidity;BME280_pressure;Samples;Min_cycle;Max_cycle;Signal;HPM_P1;HPM_P2
2023/05/21 00:00:39;;;;;;;14.00;12.70;;;18.00;99.90;;;;;;4932283;29;20205;-89
2023/05/21 00:03:04;;;;;;;13.17;11.87;;;17.80;99.90;;;;;;4933631;28;20212;-89
2023/05/21 00:05:31;;;;;;;14.13;12.73;;;18.00;99.90;;;;;;4932856;29;20648;-89
2023/05/21 00:07:56;;;;;;;14.45;13.05;;;17.80;99.90;;;;;;4931281;29;20189;-90
2023/05/21 00:10:22;;;;;;;14.73;13.33;;;17.80;99.90;;;;;;4933181;29;20189;-89
2023/05/21 00:12:47;;;;;;;13.63;12.10;;;17.70;99.90;;;;;;4953940;28;20219;-88
2023/05/21 00:15:13;;;;;;;14.83;13.43;;;18.00;99.90;;;;;;4936593;28;20280;-89
2023/05/21 00:17:38;;;;;;;14.83;13.33;;;18.10;99.90;;;;;;4929957;29;20619;-89
2023/05/21 00:20:06;;;;;;;14.60;13.20;;;18.20;99.90;;;;;;4934452;28;20209;-89
2023/05/21 00:22:32;;;;;;;14.50;13.10;;;17.70;99.90;;;;;;4955078;28;20213;-90
2023/05/21 00:24:58;;;;;;;15.43;13.93;;;18.10;99.90;;;;;;4956281;29;20192;-89
2023/05/21 00:27:23;;;;;;;15.33;13.80;;;17.80;99.90;;;;;;4941049;29;20182;-90
2023/05/21 00:29:51;;;;;;;15.67;14.17;;;18.00;99.90;;;;;;4930578;28;20432;-90
2023/05/21 00:32:17;;;;;;;14.95;13.43;;;17.80;99.90;;;;;;4931836;28;20220;-90
2023/05/21 00:34:43;;;;;;;15.17;13.63;;;17.90;99.90;;;;;;4936358;28;20191;-90
2023/05/21 00:37:08;;;;;;;14.63;13.27;;;17.50;99.90;;;;;;4937554;29;20272;-90
2023/05/21 00:39:35;;;;;;;15.00;13.60;;;17.40;99.90;;;;;;4939085;29;20968;-90
2023/05/21 00:42:02;;;;;;;14.55;13.15;;;17.10;99.90;;;;;;4938631;29;20220;-90
2023/05/21 00:44:32;;;;;;;14.90;13.35;;;17.60;99.90;;;;;;4938851;28;20186;-90
2023/05/21 00:47:01;;;;;;;15.25;13.82;;;17.50;99.90;;;;;;4938381;29;20189;-90
2023/05/21 00:49:27;;;;;;;15.80;14.10;;;17.30;99.90;;;;;;4942239;29;20593;-90
2023/05/21 00:51:53;;;;;;;16.30;13.45;;;16.90;99.90;;;;;;4937391;29;20255;-90
2023/05/21 00:54:19;;;;;;;15.38;13.75;;;17.90;99.90;;;;;;4937921;28;20200;-90
2023/05/21 00:56:46;;;;;;;15.10;13.60;;;17.90;99.90;;;;;;4937486;29;20236;-90
2023/05/21 00:59:12;;;;;;;15.32;13.82;;;17.20;99.90;;;;;;4937090;28;20866;-89
2023/05/21 01:01:37;;;;;;;15.95;14.38;;;17.00;99.90;;;;;;4938378;29;20201;-89
2023/05/21 01:04:03;;;;;;;13.37;11.93;;;17.50;99.90;;;;;;4938614;29;20189;-89
2023/05/21 01:06:33;;;;;;;15.33;13.73;;;17.50;99.90;;;;;;4934377;29;20195;-90
2023/05/21 01:08:59;;;;;;;17.00;14.73;;;16.90;99.90;;;;;;4935772;29;20456;-89
2023/05/21 01:11:38;;;;;;;15.27;13.77;;;17.00;99.90;;;;;;4935653;28;22417;-90
2023/05/21 01:14:08;;;;;;;15.90;14.20;;;16.40;99.90;;;;;;4938639;28;20204;-88
2023/05/21 01:16:35;;;;;;;16.40;14.95;;;17.00;99.90;;;;;;4944105;28;20893;-88
2023/05/21 01:19:03;;;;;;;15.93;14.43;;;16.60;99.90;;;;;;4935306;29;20193;-90
2023/05/21 01:21:29;;;;;;;14.70;13.20;;;16.70;99.90;;;;;;4935445;28;20208;-90
2023/05/21 01:23:55;;;;;;;15.80;14.30;;;17.10;99.90;;;;;;4933835;29;20197;-90
2023/05/21 01:26:20;;;;;;;17.30;15.60;;;17.00;99.90;;;;;;4935911;28;20188;-88
2023/05/21 01:28:46;;;;;;;16.43;14.83;;;16.50;99.90;;;;;;4937430;29;20444;-88
2023/05/21 01:31:55;;;;;;;16.13;14.43;;;16.50;99.90;;;;;;4936537;28;20284;-88
2023/05/21 01:34:25;;;;;;;16.70;15.05;;;16.60;99.90;;;;;;4937049;28;21109;-88
2023/05/21 01:37:13;;;;;;;16.15;14.55;;;16.50;99.90;;;;;;4934503;29;20181;-88
2023/05/21 01:39:42;;;;;;;16.35;14.85;;;16.10;99.90;;;;;;4936353;29;20216;-88
2023/05/21 01:42:09;;;;;;;17.05;15.27;;;16.90;99.90;;;;;;4934345;28;20208;-88
2023/05/21 01:44:36;;;;;;;16.00;14.43;;;16.50;99.90;;;;;;4939911;29;20181;-88
2023/05/21 01:47:05;;;;;;;16.83;15.02;;;16.50;99.90;;;;;;4945744;29;20284;-88
2023/05/21 01:49:40;;;;;;;17.50;15.70;;;16.30;99.90;;;;;;4942526;29;20189;-87
2023/05/21 01:52:05;;;;;;;15.73;14.13;;;16.20;99.90;;;;;;4943211;28;20208;-88
2023/05/21 01:54:31;;;;;;;15.30;13.80;;;16.80;99.90;;;;;;4945658;29;20209;-88
2023/05/21 01:56:57;;;;;;;17.30;15.60;;;16.60;99.90;;;;;;4940842;29;20188;-88
2023/05/21 01:59:22;;;;;;;16.97;15.30;;;16.30;99.90;;;;;;4932982;28;20195;-89
2023/05/21 02:01:48;;;;;;;16.57;14.87;;;16.90;99.90;;;;;;4936183;28;20215;-89
2023/05/21 02:04:13;;;;;;;17.00;15.20;;;16.50;99.90;;;;;;4935550;28;20197;-87
2023/05/21 02:06:40;;;;;;;16.77;15.07;;;16.20;99.90;;;;;;4935146;28;20189;-88
2023/05/21 02:09:06;;;;;;;16.27;14.55;;;16.70;99.90;;;;;;4952141;28;20181;-89
2023/05/21 02:11:31;;;;;;;16.97;15.27;;;16.50;99.90;;;;;;4937541;28;20721;-89
2023/05/21 02:13:57;;;;;;;17.40;15.60;;;16.40;99.90;;;;;;4937511;29;20221;-89
2023/05/21 02:16:22;;;;;;;16.83;15.13;;;16.40;99.90;;;;;;4933366;29;20196;-89
2023/05/21 02:18:52;;;;;;;17.30;15.50;;;16.50;99.90;;;;;;4937049;29;20193;-88
2023/05/21 02:21:19;;;;;;;17.08;15.32;;;16.20;99.90;;;;;;4933073;28;20192;-88
2023/05/21 02:23:45;;;;;;;16.40;14.80;;;16.40;99.90;;;;;;4937735;28;20287;-88
2023/05/21 02:26:10;;;;;;;17.03;15.27;;;16.30;99.90;;;;;;4935368;28;20268;-88
2023/05/21 02:28:36;;;;;;;17.80;15.33;;;15.60;99.90;;;;;;4936183;29;20287;-88
2023/05/21 02:31:01;;;;;;;16.03;14.53;;;15.60;99.90;;;;;;4938745;28;20196;-88
2023/05/21 02:33:27;;;;;;;16.70;15.10;;;15.80;99.90;;;;;;4931685;29;20208;-89
2023/05/21 02:35:52;;;;;;;16.03;14.53;;;16.00;99.90;;;;;;4939237;29;20276;-89
2023/05/21 02:38:18;;;;;;;16.37;14.83;;;16.10;99.90;;;;;;4942123;28;20235;-88
2023/05/21 02:40:45;;;;;;;16.97;15.27;;;15.90;99.90;;;;;;4949444;28;20228;-87
2023/05/21 02:43:10;;;;;;;16.30;14.60;;;16.00;99.90;;;;;;4947603;28;20709;-88
2023/05/21 02:45:36;;;;;;;16.97;15.27;;;16.00;99.90;;;;;;4965395;28;20200;-87
2023/05/21 02:48:01;;;;;;;16.97;15.10;;;16.00;99.90;;;;;;4944794;29;20719;-88
2023/05/21 02:50:27;;;;;;;16.30;14.70;;;16.50;99.90;;;;;;4940578;28;20650;-88
2023/05/21 02:52:52;;;;;;;17.10;15.43;;;16.00;99.90;;;;;;4944509;29;20220;-89
2023/05/21 02:55:19;;;;;;;16.80;15.10;;;15.90;99.90;;;;;;4916222;29;20213;-89
2023/05/21 02:57:45;;;;;;;15.83;14.37;;;16.00;99.90;;;;;;4937142;29;20185;-89
2023/05/21 03:00:11;;;;;;;16.43;14.83;;;15.90;99.90;;;;;;4935442;29;20273;-89
2023/05/21 03:02:36;;;;;;;15.38;13.80;;;15.90;99.90;;;;;;4932313;29;20244;-88
2023/05/21 03:05:02;;;;;;;14.93;13.43;;;15.90;99.90;;;;;;4935982;28;20681;-89
2023/05/21 03:07:28;;;;;;;17.93;16.23;;;15.70;99.90;;;;;;4933266;29;20287;-88
2023/05/21 03:09:53;;;;;;;16.93;15.33;;;15.90;99.90;;;;;;4938581;29;20192;-89
2023/05/21 03:12:19;;;;;;;15.87;14.20;;;15.60;99.90;;;;;;4935498;29;20224;-88
2023/05/21 03:14:45;;;;;;;17.20;15.50;;;16.10;99.90;;;;;;4934897;28;20549;-88
2023/05/21 03:17:13;;;;;;;18.75;16.95;;;15.60;99.90;;;;;;4931785;29;20658;-88
2023/05/21 03:19:40;;;;;;;19.08;15.25;;;15.80;99.90;;;;;;4936372;29;20197;-89
2023/05/21 03:22:06;;;;;;;16.88;15.20;;;15.60;99.90;;;;;;4934698;29;20204;-88
2023/05/21 03:24:32;;;;;;;17.67;15.83;;;15.40;99.90;;;;;;4935691;28;20244;-88
2023/05/21 03:26:59;;;;;;;16.97;15.33;;;16.60;99.90;;;;;;4936666;29;20452;-88
2023/05/21 03:29:26;;;;;;;16.77;15.18;;;16.00;99.90;;;;;;4953032;28;20193;-87
2023/05/21 03:31:52;;;;;;;17.48;15.57;;;15.70;99.90;;;;;;4937498;28;20221;-88
2023/05/21 03:34:18;;;;;;;18.25;15.05;;;15.80;99.90;;;;;;4940130;28;20304;-88
2023/05/21 03:36:47;;;;;;;18.42;16.38;;;15.90;99.90;;;;;;4952138;28;20189;-88
2023/05/21 03:39:13;;;;;;;17.30;15.60;;;15.70;99.90;;;;;;4938681;29;20185;-88
2023/05/21 03:41:39;;;;;;;17.70;15.90;;;15.40;99.90;;;;;;4934540;29;20204;-88
2023/05/21 03:44:05;;;;;;;17.13;15.53;;;15.10;99.90;;;;;;4937126;29;20538;-88
2023/05/21 03:46:30;;;;;;;16.43;13.83;;;15.70;99.90;;;;;;4951225;28;20486;-89
2023/05/21 03:48:57;;;;;;;17.53;15.70;;;15.70;99.90;;;;;;4936424;29;20193;-88
2023/05/21 03:51:23;;;;;;;18.33;15.32;;;15.40;99.90;;;;;;4933423;29;20235;-88
2023/05/21 03:53:50;;;;;;;16.45;14.75;;;15.70;99.90;;;;;;4935587;29;20219;-89
2023/05/21 03:56:15;;;;;;;18.23;16.35;;;15.90;99.90;;;;;;4933603;28;20336;-89
2023/05/21 03:58:41;;;;;;;17.40;15.60;;;15.50;99.90;;;;;;4951653;28;20851;-88
2023/05/21 04:01:07;;;;;;;17.23;15.43;;;15.30;99.90;;;;;;4933698;29;20192;-89
2023/05/21 04:03:34;;;;;;;16.98;15.25;;;15.50;99.90;;;;;;4934211;28;21636;-89
2023/05/21 04:06:00;;;;;;;16.88;15.13;;;15.20;99.90;;;;;;4934524;29;20651;-89
2023/05/21 04:08:26;;;;;;;18.15;16.33;;;15.30;99.90;;;;;;4940109;29;21186;-89
2023/05/21 04:10:51;;;;;;;18.70;16.87;;;15.50;99.90;;;;;;4936790;28;20607;-88
2023/05/21 04:13:17;;;;;;;20.10;16.33;;;15.60;99.90;;;;;;4939018;29;20217;-88
2023/05/21 04:15:43;;;;;;;17.13;15.43;;;15.50;99.90;;;;;;4938189;29;20247;-87
2023/05/21 04:18:09;;;;;;;16.90;15.13;;;15.90;99.90;;;;;;4934900;29;20192;-89
2023/05/21 04:20:35;;;;;;;17.00;15.30;;;15.50;99.90;;;;;;4938401;28;20225;-89
2023/05/21 04:23:01;;;;;;;18.80;16.57;;;15.70;99.90;;;;;;4958252;28;20205;-89
2023/05/21 04:25:27;;;;;;;17.80;16.00;;;15.30;99.90;;;;;;4959216;28;20189;-88
2023/05/21 04:27:53;;;;;;;17.90;16.00;;;15.50;99.90;;;;;;4938093;29;20186;-88
2023/05/21 04:30:19;;;;;;;16.70;15.00;;;15.10;99.90;;;;;;4952103;28;20181;-88
2023/05/21 04:32:44;;;;;;;16.90;15.10;;;15.20;99.90;;;;;;4937819;29;20714;-88
2023/05/21 04:35:10;;;;;;;17.43;15.50;;;15.30;99.90;;;;;;4936919;28;20188;-90
2023/05/21 04:37:40;;;;;;;18.83;16.98;;;15.40;99.90;;;;;;4941731;29;20708;-88
2023/05/21 04:40:08;;;;;;;18.70;16.77;;;15.80;99.90;;;;;;4937793;29;20185;-90
2023/05/21 04:42:33;;;;;;;18.60;16.65;;;15.50;99.90;;;;;;4938538;29;20291;-89
2023/05/21 04:44:59;;;;;;;17.30;15.53;;;15.30;99.90;;;;;;4938770;29;20638;-89
2023/05/21 04:47:25;;;;;;;17.13;15.33;;;15.60;99.90;;;;;;4935534;29;20197;-89
2023/05/21 04:49:50;;;;;;;17.37;15.53;;;15.70;99.90;;;;;;4937491;29;20177;-89
2023/05/21 04:52:16;;;;;;;16.97;15.17;;;15.30;99.90;;;;;;4932371;28;20209;-89
2023/05/21 04:54:41;;;;;;;17.37;15.67;;;15.90;99.90;;;;;;4935295;29;20213;-88
2023/05/21 04:57:07;;;;;;;17.67;15.87;;;16.10;99.90;;;;;;4937905;29;20193;-88
2023/05/21 04:59:34;;;;;;;16.65;14.88;;;16.00;99.90;;;;;;4935229;28;20189;-91
2023/05/21 05:01:59;;;;;;;17.25;15.55;;;16.00;99.90;;;;;;4938190;29;20288;-90
2023/05/21 05:04:25;;;;;;;18.33;14.83;;;16.30;99.90;;;;;;4934080;28;20290;-90
2023/05/21 05:06:51;;;;;;;16.27;14.77;;;15.90;99.90;;;;;;4938755;29;20212;-90
2023/05/21 05:09:17;;;;;;;17.48;15.77;;;15.50;99.90;;;;;;4938798;28;20185;-90
2023/05/21 05:11:42;;;;;;;18.27;16.37;;;15.80;99.90;;;;;;4937640;29;20259;-89
2023/05/21 05:14:08;;;;;;;17.70;15.87;;;15.70;99.90;;;;;;4937036;29;20464;-88
2023/05/21 05:16:34;;;;;;;17.60;15.80;;;15.90;99.90;;;;;;4936785;28;20189;-90
2023/05/21 05:19:00;;;;;;;17.90;16.02;;;16.00;99.90;;;;;;4937350;29;20178;-89
2023/05/21 05:21:25;;;;;;;18.57;16.73;;;15.90;99.90;;;;;;4933856;29;20213;-90
2023/05/21 05:23:51;;;;;;;17.93;16.23;;;15.80;99.90;;;;;;4934094;29;20208;-90
2023/05/21 05:26:20;;;;;;;17.87;16.03;;;16.00;99.90;;;;;;4937670;29;20196;-90
2023/05/21 05:28:46;;;;;;;18.23;16.48;;;16.00;99.90;;;;;;4935809;29;20701;-90
2023/05/21 05:31:11;;;;;;;17.90;16.13;;;16.10;99.90;;;;;;4935978;29;20232;-90
2023/05/21 05:33:37;;;;;;;18.90;17.00;;;16.10;99.90;;;;;;4935734;29;20231;-90
2023/05/21 05:36:02;;;;;;;18.00;16.20;;;16.60;99.90;;;;;;4935961;29;20658;-90
2023/05/21 05:38:28;;;;;;;17.57;15.87;;;16.20;99.90;;;;;;4951565;28;20208;-90
2023/05/21 05:40:54;;;;;;;17.10;15.50;;;16.40;99.90;;;;;;4934369;29;20350;-90
2023/05/21 05:43:19;;;;;;;16.77;15.13;;;16.80;99.90;;;;;;4952339;28;20741;-90
2023/05/21 05:45:45;;;;;;;17.13;15.50;;;16.70;99.90;;;;;;4933428;28;20239;-92
2023/05/21 05:48:10;;;;;;;17.83;16.10;;;16.50;99.90;;;;;;4949674;28;20219;-91
2023/05/21 05:50:36;;;;;;;17.90;16.20;;;16.60;99.90;;;;;;4935404;29;20196;-90
2023/05/21 05:53:01;;;;;;;16.90;15.23;;;16.50;99.90;;;;;;4941789;29;20471;-85
2023/05/21 05:55:27;;;;;;;18.27;16.50;;;16.20;99.90;;;;;;4935955;28;20200;-83
2023/05/21 05:57:53;;;;;;;18.33;16.40;;;17.20;99.90;;;;;;4936990;28;20189;-84
2023/05/21 06:00:18;;;;;;;17.83;16.03;;;17.00;99.90;;;;;;4937733;29;20189;-84
2023/05/21 06:02:44;;;;;;;17.33;15.73;;;17.00;99.90;;;;;;4937879;29;20223;-86
2023/05/21 06:05:10;;;;;;;17.90;16.10;;;17.10;99.90;;;;;;4939640;29;20192;-84
2023/05/21 06:07:39;;;;;;;18.00;16.20;;;17.20;99.90;;;;;;4939757;28;20323;-84
2023/05/21 06:10:06;;;;;;;19.30;16.73;;;17.30;99.90;;;;;;4939344;29;20216;-82
2023/05/21 06:12:34;;;;;;;19.17;17.08;;;17.20;99.90;;;;;;4939379;28;20201;-82
2023/05/21 06:15:00;;;;;;;18.73;16.83;;;17.50;99.90;;;;;;4952009;29;20244;-84
2023/05/21 06:17:26;;;;;;;17.98;15.63;;;17.20;99.90;;;;;;4937514;28;20189;-84
2023/05/21 06:19:51;;;;;;;18.93;17.03;;;18.10;99.90;;;;;;4936243;29;20209;-86
2023/05/21 06:22:17;;;;;;;17.60;15.77;;;17.90;99.90;;;;;;4951187;28;20212;-84
2023/05/21 06:24:42;;;;;;;19.57;17.67;;;18.10;99.90;;;;;;4938079;29;20228;-86
2023/05/21 06:27:08;;;;;;;19.00;17.10;;;18.10;99.90;;;;;;4936320;29;20650;-86
2023/05/21 06:29:33;;;;;;;19.43;17.47;;;17.20;99.90;;;;;;4937524;28;20256;-83
2023/05/21 06:31:59;;;;;;;18.73;16.87;;;18.10;99.90;;;;;;4955136;28;20227;-83
2023/05/21 06:34:24;;;;;;;18.33;16.60;;;18.30;99.90;;;;;;4940525;28;20235;-84
2023/05/21 06:36:50;;;;;;;17.50;15.80;;;18.20;99.90;;;;;;4937614;29;20176;-90
2023/05/21 06:39:18;;;;;;;18.10;16.30;;;18.10;99.90;;;;;;4953156;28;20216;-91
2023/05/21 06:41:47;;;;;;;19.58;17.58;;;18.20;99.90;;;;;;4917477;29;20217;-90
2023/05/21 06:44:14;;;;;;;20.08;16.60;;;18.50;99.90;;;;;;4935346;29;20185;-90
2023/05/21 06:46:40;;;;;;;18.67;16.88;;;18.60;99.90;;;;;;4938171;28;20223;-89
2023/05/21 06:49:05;;;;;;;18.20;16.33;;;18.80;99.90;;;;;;4935051;29;20209;-89
2023/05/21 06:51:31;;;;;;;17.10;15.50;;;19.00;99.90;;;;;;4933971;29;20212;-90
2023/05/21 06:53:56;;;;;;;18.63;16.57;;;19.20;99.90;;;;;;4933636;29;20476;-90
2023/05/21 06:56:22;;;;;;;19.77;17.77;;;19.20;99.90;;;;;;4936992;28;20305;-91
2023/05/21 06:58:48;;;;;;;21.00;18.80;;;18.90;99.90;;;;;;4933516;29;20260;-92
2023/05/21 07:01:13;;;;;;;17.47;15.97;;;19.50;99.90;;;;;;4931598;29;20183;-88
2023/05/21 07:03:39;;;;;;;22.30;20.10;;;19.90;99.90;;;;;;4933527;29;20552;-88
2023/05/21 07:06:05;;;;;;;16.50;15.10;;;20.50;99.90;;;;;;4934267;29;20193;-88
2023/05/21 07:08:30;;;;;;;16.92;15.32;;;21.00;99.90;;;;;;4934344;28;20518;-89
2023/05/21 07:10:56;;;;;;;16.73;15.23;;;22.00;99.90;;;;;;4932848;28;20207;-88
2023/05/21 07:13:21;;;;;;;16.00;14.50;;;22.60;99.50;;;;;;4951847;28;20279;-88
2023/05/21 07:15:47;;;;;;;15.57;14.00;;;23.40;97.90;;;;;;4934499;29;20243;-88
2023/05/21 07:18:12;;;;;;;15.37;13.97;;;23.70;95.70;;;;;;4933676;28;20185;-89
2023/05/21 07:20:38;;;;;;;16.13;14.63;;;24.90;95.10;;;;;;4935338;28;20194;-89
2023/05/21 07:23:03;;;;;;;14.90;13.60;;;25.40;92.60;;;;;;4934524;28;20207;-88
2023/05/21 07:25:29;;;;;;;15.53;14.00;;;25.20;92.60;;;;;;4934772;28;20187;-88
2023/05/21 07:27:55;;;;;;;15.33;13.97;;;25.60;92.90;;;;;;4934233;28;20263;-89
2023/05/21 07:30:20;;;;;;;15.63;14.27;;;25.50;91.90;;;;;;4932490;28;20650;-89
2023/05/21 07:32:46;;;;;;;14.67;13.47;;;27.10;89.80;;;;;;4934362;28;20248;-89
2023/05/21 07:35:11;;;;;;;14.27;12.97;;;27.90;86.70;;;;;;4933804;29;20642;-89
2023/05/21 07:37:37;;;;;;;15.57;14.17;;;28.90;83.40;;;;;;4929817;29;20533;-90
2023/05/21 07:40:03;;;;;;;13.73;12.57;;;28.30;80.60;;;;;;4933383;29;20206;-89
2023/05/21 07:42:30;;;;;;;15.70;14.30;;;28.30;81.40;;;;;;4934243;28;20739;-88
2023/05/21 07:44:55;;;;;;;14.50;13.20;;;27.40;80.40;;;;;;4932511;28;20196;-89
2023/05/21 07:47:22;;;;;;;14.30;13.10;;;28.10;81.10;;;;;;4935978;28;21228;-87
2023/05/21 07:49:47;;;;;;;15.77;14.47;;;28.20;80.90;;;;;;4937122;29;20280;-89
2023/05/21 07:52:16;;;;;;;14.80;13.53;;;29.60;75.40;;;;;;4935646;28;20589;-90
2023/05/21 07:54:41;;;;;;;14.00;12.70;;;29.90;73.70;;;;;;4941553;28;20209;-90
2023/05/21 07:57:07;;;;;;;14.30;13.07;;;32.10;72.60;;;;;;4937495;29;20486;-90
2023/05/21 07:59:33;;;;;;;14.57;13.37;;;31.40;69.40;;;;;;4938191;29;20185;-90
2023/05/21 08:01:58;;;;;;;14.03;12.93;;;32.90;71.50;;;;;;4942103;29;20279;-91
2023/05/21 08:04:24;;;;;;;14.20;13.00;;;34.20;68.90;;;;;;4940398;29;20195;-90
2023/05/21 08:06:50;;;;;;;14.10;12.83;;;33.40;67.50;;;;;;4940434;29;20212;-91
2023/05/21 08:09:17;;;;;;;13.07;12.00;;;32.50;64.90;;;;;;4939479;29;20494;-91
2023/05/21 08:11:44;;;;;;;14.70;13.30;;;33.70;66.00;;;;;;4941480;29;20223;-91
2023/05/21 08:14:10;;;;;;;15.50;14.20;;;32.80;63.80;;;;;;4939130;29;20872;-91
2023/05/21 08:16:35;;;;;;;14.30;13.10;;;30.40;64.90;;;;;;4938436;29;20850;-90
2023/05/21 08:19:01;;;;;;;15.93;14.63;;;31.60;65.10;;;;;;4949251;29;20449;-91
2023/05/21 08:21:26;;;;;;;14.27;12.87;;;33.60;66.00;;;;;;4961597;29;20208;-91
2023/05/21 08:23:52;;;;;;;12.90;11.90;;;33.10;64.00;;;;;;4953953;29;20200;-90
2023/05/21 08:26:18;;;;;;;13.10;12.10;;;32.00;62.20;;;;;;4938930;29;20541;-91
2023/05/21 08:28:44;;;;;;;12.93;11.93;;;32.50;60.80;;;;;;4941425;28;20991;-91
2023/05/21 08:31:09;;;;;;;13.50;12.40;;;31.90;61.80;;;;;;4954319;28;20260;-91
2023/05/21 08:33:38;;;;;;;14.67;13.47;;;34.50;60.50;;;;;;4966386;28;20232;-90
2023/05/21 08:36:07;;;;;;;13.90;12.80;;;34.90;57.40;;;;;;4949816;29;20188;-91
2023/05/21 08:38:33;;;;;;;13.80;12.60;;;35.10;56.40;;;;;;4940436;28;20440;-91
2023/05/21 08:40:59;;;;;;;14.00;12.90;;;36.70;55.00;;;;;;4924997;29;20447;-91
2023/05/21 08:43:28;;;;;;;14.33;13.23;;;34.10;54.90;;;;;;4940951;29;20758;-91
2023/05/21 08:45:59;;;;;;;13.93;12.63;;;34.30;54.10;;;;;;4923283;29;20820;-91
2023/05/21 08:48:24;;;;;;;14.10;12.97;;;33.30;54.20;;;;;;4936537;29;21004;-91
2023/05/21 08:50:53;;;;;;;13.97;12.70;;;33.00;55.70;;;;;;4939965;28;20539;-90
2023/05/21 08:53:22;;;;;;;13.10;12.10;;;33.20;55.30;;;;;;4939094;29;20209;-89
2023/05/21 08:55:50;;;;;;;14.57;13.40;;;32.90;55.90;;;;;;4936126;28;20440;-89
2023/05/21 08:58:17;;;;;;;13.57;12.40;;;33.50;55.20;;;;;;4939394;29;20459;-90
2023/05/21 09:00:42;;;;;;;14.53;13.10;;;34.20;53.10;;;;;;4957169;28;20520;-90
2023/05/21 09:03:10;;;;;;;13.00;11.90;;;33.50;54.50;;;;;;4940025;29;20500;-91
2023/05/21 09:05:41;;;;;;;14.87;13.57;;;33.90;53.50;;;;;;4940148;29;20203;-90
2023/05/21 09:08:26;;;;;;;13.00;12.07;;;33.60;53.70;;;;;;4939292;29;20977;-90
2023/05/21 09:10:52;;;;;;;13.40;12.30;;;33.80;53.20;;;;;;4936280;28;20483;-90
2023/05/21 09:13:18;;;;;;;13.50;12.40;;;33.70;52.90;;;;;;4944423;29;20472;-90
2023/05/21 09:15:45;;;;;;;13.27;12.27;;;33.80;54.30;;;;;;4958118;29;20188;-90
2023/05/21 09:18:11;;;;;;;13.20;12.20;;;34.40;55.30;;;;;;4962544;28;20448;-90
2023/05/21 09:20:37;;;;;;;12.17;11.30;;;32.90;54.70;;;;;;4939949;29;20472;-90
2023/05/21 09:23:05;;;;;;;13.70;12.57;;;33.10;56.10;;;;;;4938912;29;20487;-90
2023/05/21 09:25:31;;;;;;;13.20;12.10;;;31.80;56.10;;;;;;4938833;28;20447;-91
2023/05/21 09:27:58;;;;;;;14.43;13.13;;;33.00;57.90;;;;;;4939887;28;20439;-89
2023/05/21 09:30:26;;;;;;;13.10;12.00;;;30.80;59.20;;;;;;4940277;29;20432;-90
2023/05/21 09:32:56;;;;;;;12.70;11.40;;;29.60;60.10;;;;;;4938306;28;20564;-89
2023/05/21 09:35:22;;;;;;;13.27;12.23;;;31.80;63.70;;;;;;4937462;29;20847;-90
2023/05/21 09:37:49;;;;;;;13.07;12.03;;;29.10;64.10;;;;;;4946615;28;20828;-90
2023/05/21 09:40:19;;;;;;;13.40;12.00;;;30.40;67.50;;;;;;4941430;29;20806;-90
2023/05/21 09:42:50;;;;;;;12.00;11.10;;;28.20;66.70;;;;;;4951963;28;20464;-91
2023/05/21 09:45:18;;;;;;;12.93;11.83;;;27.50;66.10;;;;;;4964054;28;20798;-91
2023/05/21 09:47:45;;;;;;;12.53;11.47;;;29.80;65.50;;;;;;4950850;29;20458;-89
2023/05/21 09:50:22;;;;;;;12.87;11.60;;;28.30;63.30;;;;;;4936883;29;20990;-89
2023/05/21 09:52:51;;;;;;;11.70;10.77;;;28.50;64.30;;;;;;4939805;28;20483;-91
2023/05/21 09:55:18;;;;;;;12.43;11.40;;;30.30;66.10;;;;;;4943528;28;20475;-88
2023/05/21 09:57:45;;;;;;;12.33;11.33;;;28.50;63.30;;;;;;4948103;28;20460;-88
2023/05/21 10:00:22;;;;;;;11.70;10.57;;;31.90;66.10;;;;;;4943107;29;20442;-92
2023/05/21 10:02:56;;;;;;;11.60;10.67;;;29.20;62.20;;;;;;4940311;28;20459;-92
2023/05/21 10:05:27;;;;;;;10.70;9.90;;;28.70;62.30;;;;;;4940989;29;20440;-89
2023/05/21 10:07:59;;;;;;;11.70;10.80;;;29.70;62.20;;;;;;4931750;28;20464;-89
2023/05/21 10:10:26;;;;;;;11.23;10.23;;;28.80;61.20;;;;;;4932894;29;20546;-89
2023/05/21 10:13:05;;;;;;;11.63;10.73;;;28.60;61.80;;;;;;4935845;28;20504;-90
2023/05/21 10:15:42;;;;;;;12.00;11.00;;;28.00;63.10;;;;;;4920805;29;21203;-90
2023/05/21 10:18:12;;;;;;;11.63;10.57;;;27.90;63.50;;;;;;4933206;28;20470;-90
2023/05/21 10:20:38;;;;;;;10.87;9.97;;;27.60;65.30;;;;;;4936083;28;20443;-89
2023/05/21 10:23:04;;;;;;;11.40;10.50;;;27.10;65.40;;;;;;4936087;28;20895;-90
2023/05/21 10:25:31;;;;;;;11.07;10.20;;;28.50;69.40;;;;;;4936547;29;20441;-90
2023/05/21 10:27:57;;;;;;;12.00;11.10;;;28.30;70.10;;;;;;4934930;28;20208;-91
2023/05/21 10:30:23;;;;;;;12.53;11.43;;;26.70;72.00;;;;;;4934968;29;20948;-91
2023/05/21 10:32:49;;;;;;;11.07;10.17;;;25.70;72.10;;;;;;4931437;29;20516;-90
2023/05/21 10:35:17;;;;;;;12.13;11.03;;;25.90;72.60;;;;;;4940016;29;20448;-92
2023/05/21 10:37:44;;;;;;;11.40;10.40;;;26.40;71.20;;;;;;4936058;28;20857;-91
2023/05/21 10:40:10;;;;;;;11.73;10.63;;;26.00;71.60;;;;;;4934367;29;20448;-92
2023/05/21 10:42:57;;;;;;;10.73;9.93;;;25.60;72.70;;;;;;4934876;28;20558;-92
2023/05/21 10:45:52;;;;;;;11.97;10.87;;;25.30;72.00;;;;;;4934962;29;20443;-92
2023/05/21 10:48:32;;;;;;;11.47;10.50;;;25.40;73.00;;;;;;4935974;29;20452;-92
2023/05/21 10:51:19;;;;;;;11.57;10.67;;;25.40;73.90;;;;;;4934260;29;20466;-92
2023/05/21 10:54:06;;;;;;;11.53;10.60;;;25.40;74.10;;;;;;4936924;28;20471;-93
2023/05/21 10:57:03;;;;;;;12.40;11.33;;;25.70;73.70;;;;;;4957336;29;20467;-92
2023/05/21 10:59:48;;;;;;;12.10;11.10;;;25.60;73.00;;;;;;4914451;29;20490;-91
2023/05/21 11:02:15;;;;;;;11.87;10.77;;;26.20;73.70;;;;;;4935730;28;20454;-93
2023/05/21 11:04:43;;;;;;;10.87;10.00;;;26.70;72.50;;;;;;4941714;28;20511;-92
2023/05/21 11:07:11;;;;;;;12.13;11.13;;;26.20;72.20;;;;;;4945011;29;20459;-92
2023/05/21 11:09:37;;;;;;;11.87;10.87;;;26.90;71.70;;;;;;4943499;29;20468;-91
2023/05/21 11:12:03;;;;;;;12.23;11.13;;;26.60;70.00;;;;;;4955555;29;20475;-91
2023/05/21 11:14:38;;;;;;;11.20;10.20;;;26.90;71.00;;;;;;4944980;29;20499;-90
2023/05/21 11:17:14;;;;;;;11.40;10.40;;;27.00;68.70;;;;;;4947465;29;20483;-91
2023/05/21 11:19:47;;;;;;;11.20;10.30;;;26.90;69.20;;;;;;4942433;28;21045;-91
2023/05/21 11:22:23;;;;;;;11.70;10.80;;;26.60;70.80;;;;;;4925393;29;20472;-92
2023/05/21 11:24:50;;;;;;;12.40;11.40;;;26.50;71.70;;;;;;4946746;29;20448;-92
2023/05/21 11:27:29;;;;;;;11.30;10.40;;;26.70;71.00;;;;;;4939977;29;20445;-92
2023/05/21 11:29:55;;;;;;;11.90;10.90;;;26.80;69.90;;;;;;4941995;28;20489;-91
2023/05/21 11:32:22;;;;;;;12.83;11.70;;;27.20;70.30;;;;;;4935089;29;20477;-92
2023/05/21 11:34:48;;;;;;;11.43;10.43;;;27.50;70.80;;;;;;4940045;29;20698;-92
2023/05/21 11:37:17;;;;;;;10.47;9.43;;;26.80;70.00;;;;;;4940260;29;20449;-92
2023/05/21 11:39:44;;;;;;;9.77;8.93;;;28.50;72.60;;;;;;4939614;29;20222;-91
2023/05/21 11:42:09;;;;;;;10.80;9.80;;;26.80;69.60;;;;;;4937716;29;20456;-91
2023/05/21 11:44:47;;;;;;;10.53;9.63;;;27.60;71.80;;;;;;4935974;29;20536;-92
2023/05/21 11:47:15;;;;;;;10.77;9.87;;;26.80;70.80;;;;;;4937155;28;20181;-92
2023/05/21 11:49:41;;;;;;;11.27;10.10;;;27.80;72.90;;;;;;4959510;23;20507;-72
2023/05/21 11:52:09;;;;;;;13.23;10.30;;;26.50;71.30;;;;;;4928676;29;20678;-72
2023/05/21 11:54:50;;;;;;;11.37;10.37;;;26.40;72.40;;;;;;4925053;29;20476;-74
2023/05/21 11:57:18;;;;;;;11.70;10.70;;;26.60;71.80;;;;;;4929017;29;20451;-73
2023/05/21 11:59:44;;;;;;;10.40;9.57;;;26.10;71.40;;;;;;4927172;29;20464;-73
2023/05/21 12:02:16;;;;;;;11.97;10.90;;;26.00;72.30;;;;;;4930382;29;20505;-74
2023/05/21 12:04:43;;;;;;;11.60;10.20;;;26.00;72.60;;;;;;4945778;29;20539;-72
2023/05/21 12:07:12;;;;;;;14.60;12.10;;;26.30;73.50;;;;;;4942509;28;20490;-74
2023/05/21 12:09:57;;;;;;;11.27;10.17;;;26.20;73.50;;;;;;4929217;29;20495;-74
2023/05/21 12:12:25;;;;;;;12.60;11.60;;;26.20;73.30;;;;;;4927241;29;20842;-73
2023/05/21 12:14:57;;;;;;;10.90;9.77;;;26.40;73.20;;;;;;4928258;28;20481;-73
2023/05/21 12:17:24;;;;;;;11.60;10.50;;;26.20;71.80;;;;;;4942972;29;20449;-73
2023/05/21 12:19:51;;;;;;;11.23;10.23;;;26.90;71.70;;;;;;4929162;29;20507;-73
2023/05/21 12:22:17;;;;;;;11.50;10.50;;;26.60;71.20;;;;;;4940685;28;20484;-73
2023/05/21 12:24:44;;;;;;;9.93;9.13;;;26.60;71.40;;;;;;4943820;28;20456;-73
2023/05/21 12:27:11;;;;;;;11.07;10.07;;;26.70;71.50;;;;;;4929108;29;20281;-74
2023/05/21 12:29:39;;;;;;;12.13;9.83;;;26.40;71.10;;;;;;4946872;29;21248;-73